Buoy 44845

sailwx.info

Track history (hours):
 
Tides and Currents Weather Stations Pressure Air Temp Water Temp Dewpoint Dewpoint Depression Visibility Wind Speed Wind Dir Waves Ship Positions

Drifting buoy 44845

Last reported at 2017-Mar-16 12:01 UTC. Time now 2017-Apr-25 16:28 UTC.
Position N 70°46' E 053°29'.
Warning: this ship's position is 40 days out of date.

Date/timePositionNaut miles runAvg speedWind from/ knotsBaromVisibWave heightAir tempDewpointWater temp
2017-Mar-16 12:01N 70°46' E 053°29'0 0.4
2017-Mar-16 11:01N 70°46' E 053°28'1 0.8
2017-Mar-16 10:01N 70°46' E 053°26'0 0.4
2017-Mar-16 09:01N 70°46' E 053°25'0 0.4
2017-Mar-16 08:01N 70°46' E 053°23'1 0.6
2017-Mar-16 07:01N 70°45' E 053°23'1 0.6
2017-Mar-16 06:01N 70°44' E 053°23'1 0.6
2017-Mar-16 05:01N 70°44' E 053°22'1 0.6
2017-Mar-16 04:01N 70°43' E 053°22'0 0.4
2017-Mar-16 03:01N 70°43' E 053°20'1 0.6
2017-Mar-16 02:01N 70°43' E 053°20'1 0.8
2017-Mar-16 01:01N 70°42' E 053°18'0 0.4
2017-Mar-16 00:01N 70°42' E 053°17'1 0.8
2017-Mar-15 23:01N 70°41' E 053°15'0 0.4
2017-Mar-15 22:01N 70°41' E 053°14'1 0.7
2017-Mar-15 21:01N 70°41' E 053°13'2 1.8
2017-Mar-15 20:01N 70°39' E 053°12'0 0.0
2017-Mar-15 19:01N 70°39' E 053°12'0 0.0
2017-Mar-15 18:01N 70°39' E 053°12'1 0.6
2017-Mar-15 17:01N 70°38' E 053°13'1 0.6
2017-Mar-15 16:01N 70°38' E 053°13'0 0.2
2017-Mar-15 15:01N 70°38' E 053°13'1 0.6
2017-Mar-15 14:01N 70°37' E 053°13'1 0.7
2017-Mar-15 13:01N 70°37' E 053°11'0 0.4
2017-Mar-15 12:01N 70°37' E 053°10'1 0.6
2017-Mar-15 11:01N 70°37' E 053°08'1 0.8
2017-Mar-15 10:01N 70°36' E 053°07'1 0.6
2017-Mar-15 09:01N 70°36' E 053°05'0 0.4
2017-Mar-15 08:01N 70°36' E 053°04'1 0.7
2017-Mar-15 07:01N 70°35' E 053°02'1 0.7
2017-Mar-15 06:01N 70°35' E 053°01'1 0.6
2017-Mar-15 05:01N 70°34' E 053°01'0 0.2
2017-Mar-15 04:01N 70°34' E 053°00'1 0.6
2017-Mar-15 03:01N 70°34' E 052°59'1 0.7
2017-Mar-15 02:01N 70°33' E 052°58'1 0.8
2017-Mar-15 01:01N 70°32' E 052°56'1 1.0
2017-Mar-15 00:01N 70°32' E 052°54'1 1.0
2017-Mar-14 23:01N 70°32' E 052°51'1 1.0
2017-Mar-14 22:01N 70°32' E 052°48'1 1.0
2017-Mar-14 21:01N 70°32' E 052°45'1 0.8
2017-Mar-14 20:01N 70°32' E 052°43'1 1.0
2017-Mar-14 19:01N 70°31' E 052°40'1 1.0
2017-Mar-14 18:01N 70°31' E 052°38'1 0.6
2017-Mar-14 17:01N 70°31' E 052°36'1 0.7
2017-Mar-14 16:01N 70°30' E 052°35'1 0.7
2017-Mar-14 15:01N 70°29' E 052°34'1 0.8
2017-Mar-14 14:01N 70°29' E 052°32'1 0.6
2017-Mar-14 13:01N 70°29' E 052°30'1 0.8
2017-Mar-14 12:01N 70°28' E 052°28'1 0.8
2017-Mar-14 11:01N 70°28' E 052°26'1 0.8
2017-Mar-14 10:01N 70°28' E 052°23'1 0.8
2017-Mar-14 09:01N 70°28' E 052°21'1 1.0
2017-Mar-14 08:01N 70°29' E 052°19'1 0.6
2017-Mar-14 07:01N 70°29' E 052°17'1 0.6
2017-Mar-14 06:01N 70°29' E 052°15'0 0.4
2017-Mar-14 05:01N 70°29' E 052°14'1 0.6
2017-Mar-14 04:01N 70°29' E 052°13'0 0.2
2017-Mar-14 03:01N 70°29' E 052°13'0 0.4
2017-Mar-14 02:01N 70°29' E 052°11'1 0.6
2017-Mar-14 01:01N 70°30' E 052°11'1 0.7
2017-Mar-14 00:01N 70°31' E 052°10'1 0.7
2017-Mar-13 23:01N 70°31' E 052°08'1 0.8
2017-Mar-13 22:01N 70°32' E 052°07'1 1.3
2017-Mar-13 21:01N 70°33' E 052°05'1 0.7
2017-Mar-13 20:01N 70°34' E 052°04'1 0.7
2017-Mar-13 19:01N 70°34' E 052°03'1 0.6
2017-Mar-13 18:01N 70°35' E 052°03'1 1.2
2017-Mar-13 17:01N 70°36' E 052°04'1 0.6
2017-Mar-13 16:01N 70°37' E 052°04'1 0.6
2017-Mar-13 15:01N 70°37' E 052°04'1 0.6
2017-Mar-13 14:01N 70°38' E 052°04'1 0.6
2017-Mar-13 13:01N 70°38' E 052°04'1 1.3
2017-Mar-13 12:01N 70°40' E 052°03'1 0.6
2017-Mar-13 11:01N 70°40' E 052°02'1 0.7
2017-Mar-13 10:01N 70°41' E 052°01'1 0.6
2017-Mar-13 09:01N 70°41' E 052°01'1 1.3
2017-Mar-13 08:01N 70°43' E 051°59'1 0.6
2017-Mar-13 06:01N 70°44' E 051°59'0 0.4
2017-Mar-13 05:01N 70°44' E 052°00'2 0.9
2017-Mar-13 03:01N 70°44' E 052°05'1 1.0
2017-Mar-13 02:01N 70°44' E 052°08'1 1.0
2017-Mar-13 01:01N 70°44' E 052°11'0 0.4
2017-Mar-13 00:01N 70°44' E 052°13'0 0.0
2017-Mar-12 23:01N 70°44' E 052°13'1 0.6
2017-Mar-12 22:01N 70°43' E 052°12'1 0.6
2017-Mar-12 21:01N 70°43' E 052°10'2 0.8
2017-Mar-12 19:01N 70°44' E 052°06'1 0.6
2017-Mar-12 18:01N 70°44' E 052°04'1 0.6
2017-Mar-12 17:01N 70°43' E 052°04'0 0.4
2017-Mar-12 16:01N 70°43' E 052°02'1 0.8
2017-Mar-12 15:01N 70°43' E 052°01'1 0.7
2017-Mar-12 14:01N 70°42' E 051°59'1 0.8
2017-Mar-12 13:01N 70°41' E 051°58'1 0.6
2017-Mar-12 12:01N 70°41' E 051°56'1 0.8
2017-Mar-12 11:01N 70°41' E 051°53'1 0.6
2017-Mar-12 10:01N 70°41' E 051°52'1 0.8
2017-Mar-12 09:01N 70°41' E 051°49'1 1.0
2017-Mar-12 08:01N 70°42' E 051°47'1 0.8
2017-Mar-12 07:01N 70°42' E 051°44'1 0.8
2017-Mar-12 06:01N 70°43' E 051°43'1 1.0
2017-Mar-12 05:01N 70°43' E 051°40'2 0.7
2017-Mar-12 02:01N 70°44' E 051°34'1 0.8
2017-Mar-12 01:01N 70°43' E 051°32'1 1.4
2017-Mar-12 00:01N 70°42' E 051°30'0 0.0
2017-Mar-11 23:01N 70°42' E 051°30'1 0.6
2017-Mar-11 22:01N 70°43' E 051°29'0 0.4
2017-Mar-11 21:01N 70°43' E 051°28'1 0.7
2017-Mar-11 20:01N 70°43' E 051°27'1 1.3
2017-Mar-11 19:01N 70°44' E 051°26'1 0.7
2017-Mar-11 18:01N 70°45' E 051°25'1 0.7
2017-Mar-11 17:01N 70°46' E 051°23'1 1.3
2017-Mar-11 16:01N 70°47' E 051°22'1 0.7
2017-Mar-11 15:01N 70°47' E 051°21'1 0.7
2017-Mar-11 14:01N 70°48' E 051°20'1 0.8
2017-Mar-11 13:01N 70°49' E 051°18'1 1.0
2017-Mar-11 12:01N 70°49' E 051°16'1 0.8
2017-Mar-11 11:01N 70°49' E 051°14'1 1.0
2017-Mar-11 10:01N 70°49' E 051°11'1 0.8
2017-Mar-11 09:01N 70°49' E 051°09'1 0.8
2017-Mar-11 08:01N 70°49' E 051°07'1 1.0
2017-Mar-11 07:01N 70°50' E 051°04'1 0.8
2017-Mar-11 06:01N 70°50' E 051°02'1 0.8
2017-Mar-11 05:01N 70°50' E 050°59'1 0.6
2017-Mar-11 04:01N 70°50' E 050°58'1 0.8
2017-Mar-11 03:01N 70°49' E 050°56'1 0.6
2017-Mar-11 02:01N 70°49' E 050°54'1 0.6
2017-Mar-11 01:01N 70°49' E 050°52'1 0.7
2017-Mar-11 00:01N 70°49' E 050°51'1 0.6
2017-Mar-10 23:01N 70°49' E 050°49'1 0.8
2017-Mar-10 22:01N 70°49' E 050°47'1 0.8
2017-Mar-10 21:01N 70°49' E 050°44'1 1.0
2017-Mar-10 20:01N 70°49' E 050°42'1 0.6
2017-Mar-10 19:01N 70°49' E 050°40'1 0.6
2017-Mar-10 18:01N 70°49' E 050°38'1 0.8
2017-Mar-10 17:01N 70°50' E 050°37'0 0.4
2017-Mar-10 16:01N 70°50' E 050°35'0 0.4
2017-Mar-10 15:01N 70°50' E 050°34'0 0.4
2017-Mar-10 14:01N 70°50' E 050°33'0 0.4
2017-Mar-10 13:01N 70°50' E 050°32'0 0.4
2017-Mar-10 12:01N 70°50' E 050°31'1 0.7
2017-Mar-10 11:01N 70°49' E 050°29'1 0.6
2017-Mar-10 10:01N 70°49' E 050°28'1 0.6
2017-Mar-10 09:01N 70°49' E 050°26'1 0.6
2017-Mar-10 08:01N 70°49' E 050°24'1 0.8
2017-Mar-10 07:01N 70°50' E 050°22'1 0.8
2017-Mar-10 06:01N 70°50' E 050°20'1 0.6
2017-Mar-10 05:01N 70°50' E 050°18'1 0.6
2017-Mar-10 04:01N 70°50' E 050°16'1 0.7
2017-Mar-10 03:01N 70°50' E 050°15'1 0.7
2017-Mar-10 02:01N 70°50' E 050°14'0 0.4
2017-Mar-10 01:01N 70°50' E 050°13'0 0.2
2017-Mar-10 00:01N 70°50' E 050°12'0 0.4
2017-Mar-09 23:01N 70°50' E 050°11'1 1.0
2017-Mar-09 22:01N 70°50' E 050°08'0 0.0
2017-Mar-09 21:01N 70°50' E 050°08'1 0.6
2017-Mar-09 20:01N 70°50' E 050°06'1 0.7
2017-Mar-09 19:01N 70°49' E 050°05'1 0.6
2017-Mar-09 18:01N 70°49' E 050°03'1 0.6
2017-Mar-09 17:01N 70°49' E 050°01'1 0.6
2017-Mar-09 16:01N 70°49' E 049°59'0 0.4
2017-Mar-09 15:01N 70°49' E 049°58'1 0.7
2017-Mar-09 14:01N 70°49' E 049°57'0 0.4
2017-Mar-09 13:01N 70°49' E 049°56'1 0.7
2017-Mar-09 12:01N 70°48' E 049°55'0 0.4
2017-Mar-09 11:01N 70°48' E 049°53'1 0.6
2017-Mar-09 10:01N 70°47' E 049°53'0 0.4
2017-Mar-09 09:01N 70°47' E 049°52'0 0.4
2017-Mar-09 08:01N 70°47' E 049°50'1 0.6
2017-Mar-09 07:01N 70°47' E 049°49'0 0.4
2017-Mar-09 06:01N 70°47' E 049°47'1 0.6
2017-Mar-09 05:01N 70°47' E 049°46'1 0.8
2017-Mar-09 04:01N 70°47' E 049°44'1 0.6
2017-Mar-09 03:01N 70°47' E 049°42'1 0.7
2017-Mar-09 02:01N 70°46' E 049°41'0 0.4
2017-Mar-09 01:01N 70°46' E 049°40'0 0.4
2017-Mar-09 00:01N 70°46' E 049°38'1 0.8
2017-Mar-08 23:01N 70°46' E 049°37'0 0.4
2017-Mar-08 22:01N 70°46' E 049°35'1 0.8
2017-Mar-08 21:01N 70°45' E 049°34'1 0.6
2017-Mar-08 20:01N 70°45' E 049°32'0 0.4
2017-Mar-08 19:01N 70°45' E 049°31'0 0.4
2017-Mar-08 18:01N 70°45' E 049°29'2 1.5
2017-Mar-08 17:01N 70°46' E 049°25'0 0.0
2017-Mar-08 16:01N 70°46' E 049°25'1 1.0
2017-Mar-08 15:01N 70°46' E 049°23'1 0.8
2017-Mar-08 14:01N 70°46' E 049°20'1 1.0
2017-Mar-08 13:01N 70°46' E 049°18'1 0.6
2017-Mar-08 12:01N 70°46' E 049°16'0 0.4
2017-Mar-08 11:01N 70°46' E 049°15'0 0.4
2017-Mar-08 10:01N 70°46' E 049°14'0 0.2
2017-Mar-08 09:01N 70°46' E 049°13'0 0.4
2017-Mar-08 08:01N 70°46' E 049°12'0 0.4
2017-Mar-08 07:01N 70°46' E 049°11'0 0.2
2017-Mar-08 06:01N 70°46' E 049°10'0 0.4
2017-Mar-08 05:01N 70°46' E 049°09'0 0.4
2017-Mar-08 04:01N 70°46' E 049°08'0 0.4
2017-Mar-08 03:01N 70°46' E 049°07'0 0.4
2017-Mar-08 02:01N 70°46' E 049°05'1 0.6
2017-Mar-08 01:01N 70°46' E 049°04'1 0.6
2017-Mar-08 00:01N 70°46' E 049°02'0 0.4
2017-Mar-07 23:01N 70°46' E 049°01'1 0.7
2017-Mar-07 22:01N 70°45' E 048°59'0 0.2
2017-Mar-07 21:01N 70°45' E 048°59'0 0.2
2017-Mar-07 20:01N 70°45' E 048°58'1 0.6
2017-Mar-07 19:01N 70°44' E 048°58'0 0.2
2017-Mar-07 18:01N 70°44' E 048°57'0 0.2
2017-Mar-07 17:01N 70°44' E 048°56'0 0.2
2017-Mar-07 16:01N 70°44' E 048°56'0 0.2
2017-Mar-07 15:01N 70°44' E 048°55'1 0.6
2017-Mar-07 14:01N 70°44' E 048°55'0 0.2
2017-Mar-07 13:01N 70°44' E 048°55'1 0.6
2017-Mar-07 12:01N 70°43' E 048°55'1 0.6
2017-Mar-07 11:01N 70°43' E 048°54'0 0.0
2017-Mar-07 10:01N 70°43' E 048°54'0 0.2
2017-Mar-07 09:01N 70°43' E 048°53'0 0.2
2017-Mar-07 08:01N 70°43' E 048°53'0 0.2
2017-Mar-07 07:01N 70°43' E 048°53'0 0.0
2017-Mar-07 06:01N 70°43' E 048°53'0 0.2
2017-Mar-07 05:01N 70°43' E 048°54'1 0.6
2017-Mar-07 04:01N 70°43' E 048°54'0 0.2
2017-Mar-07 03:01N 70°43' E 048°53'1 0.6
2017-Mar-07 02:01N 70°44' E 048°53'0 0.2
2017-Mar-07 01:01N 70°44' E 048°52'0 0.0
2017-Mar-07 00:01N 70°44' E 048°52'1 0.6
2017-Mar-06 23:01N 70°44' E 048°52'0 0.2
2017-Mar-06 22:01N 70°44' E 048°53'1 0.7
2017-Mar-06 21:01N 70°45' E 048°54'0 0.2
2017-Mar-06 20:01N 70°45' E 048°55'1 0.7
2017-Mar-06 19:01N 70°46' E 048°56'0 0.2
2017-Mar-06 18:01N 70°46' E 048°56'1 0.7
2017-Mar-06 17:01N 70°46' E 048°58'1 0.6
2017-Mar-06 16:01N 70°47' E 048°58'1 0.6
2017-Mar-06 15:01N 70°47' E 048°58'0 0.4
2017-Mar-06 14:01N 70°47' E 048°57'1 0.6
2017-Mar-06 13:01N 70°47' E 048°55'  
Track history (hours):
 
Tides and Currents Weather Stations Pressure Air Temp Water Temp Dewpoint Dewpoint Depression Visibility Wind Speed Wind Dir Waves Ship Positions

Drifting buoy 44845

Last reported at 2017-Mar-16 12:01 UTC. Time now 2017-Apr-25 16:28 UTC.
Position N 70°46' E 053°29'.
Warning: this ship's position is 40 days out of date.

Date/timePositionNaut miles runAvg speedWind from/ knotsBaromVisibWave heightAir tempDewpointWater temp
2017-Mar-16 12:01N 70°46' E 053°29'0 0.4
2017-Mar-16 11:01N 70°46' E 053°28'1 0.8
2017-Mar-16 10:01N 70°46' E 053°26'0 0.4
2017-Mar-16 09:01N 70°46' E 053°25'0 0.4
2017-Mar-16 08:01N 70°46' E 053°23'1 0.6
2017-Mar-16 07:01N 70°45' E 053°23'1 0.6
2017-Mar-16 06:01N 70°44' E 053°23'1 0.6
2017-Mar-16 05:01N 70°44' E 053°22'1 0.6
2017-Mar-16 04:01N 70°43' E 053°22'0 0.4
2017-Mar-16 03:01N 70°43' E 053°20'1 0.6
2017-Mar-16 02:01N 70°43' E 053°20'1 0.8
2017-Mar-16 01:01N 70°42' E 053°18'0 0.4
2017-Mar-16 00:01N 70°42' E 053°17'1 0.8
2017-Mar-15 23:01N 70°41' E 053°15'0 0.4
2017-Mar-15 22:01N 70°41' E 053°14'1 0.7
2017-Mar-15 21:01N 70°41' E 053°13'2 1.8
2017-Mar-15 20:01N 70°39' E 053°12'0 0.0
2017-Mar-15 19:01N 70°39' E 053°12'0 0.0
2017-Mar-15 18:01N 70°39' E 053°12'1 0.6
2017-Mar-15 17:01N 70°38' E 053°13'1 0.6
2017-Mar-15 16:01N 70°38' E 053°13'0 0.2
2017-Mar-15 15:01N 70°38' E 053°13'1 0.6
2017-Mar-15 14:01N 70°37' E 053°13'1 0.7
2017-Mar-15 13:01N 70°37' E 053°11'0 0.4
2017-Mar-15 12:01N 70°37' E 053°10'1 0.6
2017-Mar-15 11:01N 70°37' E 053°08'1 0.8
2017-Mar-15 10:01N 70°36' E 053°07'1 0.6
2017-Mar-15 09:01N 70°36' E 053°05'0 0.4
2017-Mar-15 08:01N 70°36' E 053°04'1 0.7
2017-Mar-15 07:01N 70°35' E 053°02'1 0.7
2017-Mar-15 06:01N 70°35' E 053°01'1 0.6
2017-Mar-15 05:01N 70°34' E 053°01'0 0.2
2017-Mar-15 04:01N 70°34' E 053°00'1 0.6
2017-Mar-15 03:01N 70°34' E 052°59'1 0.7
2017-Mar-15 02:01N 70°33' E 052°58'1 0.8
2017-Mar-15 01:01N 70°32' E 052°56'1 1.0
2017-Mar-15 00:01N 70°32' E 052°54'1 1.0
2017-Mar-14 23:01N 70°32' E 052°51'1 1.0
2017-Mar-14 22:01N 70°32' E 052°48'1 1.0
2017-Mar-14 21:01N 70°32' E 052°45'1 0.8
2017-Mar-14 20:01N 70°32' E 052°43'1 1.0
2017-Mar-14 19:01N 70°31' E 052°40'1 1.0
2017-Mar-14 18:01N 70°31' E 052°38'1 0.6
2017-Mar-14 17:01N 70°31' E 052°36'1 0.7
2017-Mar-14 16:01N 70°30' E 052°35'1 0.7
2017-Mar-14 15:01N 70°29' E 052°34'1 0.8
2017-Mar-14 14:01N 70°29' E 052°32'1 0.6
2017-Mar-14 13:01N 70°29' E 052°30'1 0.8
2017-Mar-14 12:01N 70°28' E 052°28'1 0.8
2017-Mar-14 11:01N 70°28' E 052°26'1 0.8
2017-Mar-14 10:01N 70°28' E 052°23'1 0.8
2017-Mar-14 09:01N 70°28' E 052°21'1 1.0
2017-Mar-14 08:01N 70°29' E 052°19'1 0.6
2017-Mar-14 07:01N 70°29' E 052°17'1 0.6
2017-Mar-14 06:01N 70°29' E 052°15'0 0.4
2017-Mar-14 05:01N 70°29' E 052°14'1 0.6
2017-Mar-14 04:01N 70°29' E 052°13'0 0.2
2017-Mar-14 03:01N 70°29' E 052°13'0 0.4
2017-Mar-14 02:01N 70°29' E 052°11'1 0.6
2017-Mar-14 01:01N 70°30' E 052°11'1 0.7
2017-Mar-14 00:01N 70°31' E 052°10'1 0.7
2017-Mar-13 23:01N 70°31' E 052°08'1 0.8
2017-Mar-13 22:01N 70°32' E 052°07'1 1.3
2017-Mar-13 21:01N 70°33' E 052°05'1 0.7
2017-Mar-13 20:01N 70°34' E 052°04'1 0.7
2017-Mar-13 19:01N 70°34' E 052°03'1 0.6
2017-Mar-13 18:01N 70°35' E 052°03'1 1.2
2017-Mar-13 17:01N 70°36' E 052°04'1 0.6
2017-Mar-13 16:01N 70°37' E 052°04'1 0.6
2017-Mar-13 15:01N 70°37' E 052°04'1 0.6
2017-Mar-13 14:01N 70°38' E 052°04'1 0.6
2017-Mar-13 13:01N 70°38' E 052°04'1 1.3
2017-Mar-13 12:01N 70°40' E 052°03'1 0.6
2017-Mar-13 11:01N 70°40' E 052°02'1 0.7
2017-Mar-13 10:01N 70°41' E 052°01'1 0.6
2017-Mar-13 09:01N 70°41' E 052°01'1 1.3
2017-Mar-13 08:01N 70°43' E 051°59'1 0.6
2017-Mar-13 06:01N 70°44' E 051°59'0 0.4
2017-Mar-13 05:01N 70°44' E 052°00'2 0.9
2017-Mar-13 03:01N 70°44' E 052°05'1 1.0
2017-Mar-13 02:01N 70°44' E 052°08'1 1.0
2017-Mar-13 01:01N 70°44' E 052°11'0 0.4
2017-Mar-13 00:01N 70°44' E 052°13'0 0.0
2017-Mar-12 23:01N 70°44' E 052°13'1 0.6
2017-Mar-12 22:01N 70°43' E 052°12'1 0.6
2017-Mar-12 21:01N 70°43' E 052°10'2 0.8
2017-Mar-12 19:01N 70°44' E 052°06'1 0.6
2017-Mar-12 18:01N 70°44' E 052°04'1 0.6
2017-Mar-12 17:01N 70°43' E 052°04'0 0.4
2017-Mar-12 16:01N 70°43' E 052°02'1 0.8
2017-Mar-12 15:01N 70°43' E 052°01'1 0.7
2017-Mar-12 14:01N 70°42' E 051°59'1 0.8
2017-Mar-12 13:01N 70°41' E 051°58'1 0.6
2017-Mar-12 12:01N 70°41' E 051°56'1 0.8
2017-Mar-12 11:01N 70°41' E 051°53'1 0.6
2017-Mar-12 10:01N 70°41' E 051°52'1 0.8
2017-Mar-12 09:01N 70°41' E 051°49'1 1.0
2017-Mar-12 08:01N 70°42' E 051°47'1 0.8
2017-Mar-12 07:01N 70°42' E 051°44'1 0.8
2017-Mar-12 06:01N 70°43' E 051°43'1 1.0
2017-Mar-12 05:01N 70°43' E 051°40'2 0.7
2017-Mar-12 02:01N 70°44' E 051°34'1 0.8
2017-Mar-12 01:01N 70°43' E 051°32'1 1.4
2017-Mar-12 00:01N 70°42' E 051°30'0 0.0
2017-Mar-11 23:01N 70°42' E 051°30'1 0.6
2017-Mar-11 22:01N 70°43' E 051°29'0 0.4
2017-Mar-11 21:01N 70°43' E 051°28'1 0.7
2017-Mar-11 20:01N 70°43' E 051°27'1 1.3
2017-Mar-11 19:01N 70°44' E 051°26'1 0.7
2017-Mar-11 18:01N 70°45' E 051°25'1 0.7
2017-Mar-11 17:01N 70°46' E 051°23'1 1.3
2017-Mar-11 16:01N 70°47' E 051°22'1 0.7
2017-Mar-11 15:01N 70°47' E 051°21'1 0.7
2017-Mar-11 14:01N 70°48' E 051°20'1 0.8
2017-Mar-11 13:01N 70°49' E 051°18'1 1.0
2017-Mar-11 12:01N 70°49' E 051°16'1 0.8
2017-Mar-11 11:01N 70°49' E 051°14'1 1.0
2017-Mar-11 10:01N 70°49' E 051°11'1 0.8
2017-Mar-11 09:01N 70°49' E 051°09'1 0.8
2017-Mar-11 08:01N 70°49' E 051°07'1 1.0
2017-Mar-11 07:01N 70°50' E 051°04'1 0.8
2017-Mar-11 06:01N 70°50' E 051°02'1 0.8
2017-Mar-11 05:01N 70°50' E 050°59'1 0.6
2017-Mar-11 04:01N 70°50' E 050°58'1 0.8
2017-Mar-11 03:01N 70°49' E 050°56'1 0.6
2017-Mar-11 02:01N 70°49' E 050°54'1 0.6
2017-Mar-11 01:01N 70°49' E 050°52'1 0.7
2017-Mar-11 00:01N 70°49' E 050°51'1 0.6
2017-Mar-10 23:01N 70°49' E 050°49'1 0.8
2017-Mar-10 22:01N 70°49' E 050°47'1 0.8
2017-Mar-10 21:01N 70°49' E 050°44'1 1.0
2017-Mar-10 20:01N 70°49' E 050°42'1 0.6
2017-Mar-10 19:01N 70°49' E 050°40'1 0.6
2017-Mar-10 18:01N 70°49' E 050°38'1 0.8
2017-Mar-10 17:01N 70°50' E 050°37'0 0.4
2017-Mar-10 16:01N 70°50' E 050°35'0 0.4
2017-Mar-10 15:01N 70°50' E 050°34'0 0.4
2017-Mar-10 14:01N 70°50' E 050°33'0 0.4
2017-Mar-10 13:01N 70°50' E 050°32'0 0.4
2017-Mar-10 12:01N 70°50' E 050°31'1 0.7
2017-Mar-10 11:01N 70°49' E 050°29'1 0.6
2017-Mar-10 10:01N 70°49' E 050°28'1 0.6
2017-Mar-10 09:01N 70°49' E 050°26'1 0.6
2017-Mar-10 08:01N 70°49' E 050°24'1 0.8
2017-Mar-10 07:01N 70°50' E 050°22'1 0.8
2017-Mar-10 06:01N 70°50' E 050°20'1 0.6
2017-Mar-10 05:01N 70°50' E 050°18'1 0.6
2017-Mar-10 04:01N 70°50' E 050°16'1 0.7
2017-Mar-10 03:01N 70°50' E 050°15'1 0.7
2017-Mar-10 02:01N 70°50' E 050°14'0 0.4
2017-Mar-10 01:01N 70°50' E 050°13'0 0.2
2017-Mar-10 00:01N 70°50' E 050°12'0 0.4
2017-Mar-09 23:01N 70°50' E 050°11'1 1.0
2017-Mar-09 22:01N 70°50' E 050°08'0 0.0
2017-Mar-09 21:01N 70°50' E 050°08'1 0.6
2017-Mar-09 20:01N 70°50' E 050°06'1 0.7
2017-Mar-09 19:01N 70°49' E 050°05'1 0.6
2017-Mar-09 18:01N 70°49' E 050°03'1 0.6
2017-Mar-09 17:01N 70°49' E 050°01'1 0.6
2017-Mar-09 16:01N 70°49' E 049°59'0 0.4
2017-Mar-09 15:01N 70°49' E 049°58'1 0.7
2017-Mar-09 14:01N 70°49' E 049°57'0 0.4
2017-Mar-09 13:01N 70°49' E 049°56'1 0.7
2017-Mar-09 12:01N 70°48' E 049°55'0 0.4
2017-Mar-09 11:01N 70°48' E 049°53'1 0.6
2017-Mar-09 10:01N 70°47' E 049°53'0 0.4
2017-Mar-09 09:01N 70°47' E 049°52'0 0.4
2017-Mar-09 08:01N 70°47' E 049°50'1 0.6
2017-Mar-09 07:01N 70°47' E 049°49'0 0.4
2017-Mar-09 06:01N 70°47' E 049°47'1 0.6
2017-Mar-09 05:01N 70°47' E 049°46'1 0.8
2017-Mar-09 04:01N 70°47' E 049°44'1 0.6
2017-Mar-09 03:01N 70°47' E 049°42'1 0.7
2017-Mar-09 02:01N 70°46' E 049°41'0 0.4
2017-Mar-09 01:01N 70°46' E 049°40'0 0.4
2017-Mar-09 00:01N 70°46' E 049°38'1 0.8
2017-Mar-08 23:01N 70°46' E 049°37'0 0.4
2017-Mar-08 22:01N 70°46' E 049°35'1 0.8
2017-Mar-08 21:01N 70°45' E 049°34'1 0.6
2017-Mar-08 20:01N 70°45' E 049°32'0 0.4
2017-Mar-08 19:01N 70°45' E 049°31'0 0.4
2017-Mar-08 18:01N 70°45' E 049°29'2 1.5
2017-Mar-08 17:01N 70°46' E 049°25'0 0.0
2017-Mar-08 16:01N 70°46' E 049°25'1 1.0
2017-Mar-08 15:01N 70°46' E 049°23'1 0.8
2017-Mar-08 14:01N 70°46' E 049°20'1 1.0
2017-Mar-08 13:01N 70°46' E 049°18'1 0.6
2017-Mar-08 12:01N 70°46' E 049°16'0 0.4
2017-Mar-08 11:01N 70°46' E 049°15'0 0.4
2017-Mar-08 10:01N 70°46' E 049°14'0 0.2
2017-Mar-08 09:01N 70°46' E 049°13'0 0.4
2017-Mar-08 08:01N 70°46' E 049°12'0 0.4
2017-Mar-08 07:01N 70°46' E 049°11'0 0.2
2017-Mar-08 06:01N 70°46' E 049°10'0 0.4
2017-Mar-08 05:01N 70°46' E 049°09'0 0.4
2017-Mar-08 04:01N 70°46' E 049°08'0 0.4
2017-Mar-08 03:01N 70°46' E 049°07'0 0.4
2017-Mar-08 02:01N 70°46' E 049°05'1 0.6
2017-Mar-08 01:01N 70°46' E 049°04'1 0.6
2017-Mar-08 00:01N 70°46' E 049°02'0 0.4
2017-Mar-07 23:01N 70°46' E 049°01'1 0.7
2017-Mar-07 22:01N 70°45' E 048°59'0 0.2
2017-Mar-07 21:01N 70°45' E 048°59'0 0.2
2017-Mar-07 20:01N 70°45' E 048°58'1 0.6
2017-Mar-07 19:01N 70°44' E 048°58'0 0.2
2017-Mar-07 18:01N 70°44' E 048°57'0 0.2
2017-Mar-07 17:01N 70°44' E 048°56'0 0.2
2017-Mar-07 16:01N 70°44' E 048°56'0 0.2
2017-Mar-07 15:01N 70°44' E 048°55'1 0.6
2017-Mar-07 14:01N 70°44' E 048°55'0 0.2
2017-Mar-07 13:01N 70°44' E 048°55'1 0.6
2017-Mar-07 12:01N 70°43' E 048°55'1 0.6
2017-Mar-07 11:01N 70°43' E 048°54'0 0.0
2017-Mar-07 10:01N 70°43' E 048°54'0 0.2
2017-Mar-07 09:01N 70°43' E 048°53'0 0.2
2017-Mar-07 08:01N 70°43' E 048°53'0 0.2
2017-Mar-07 07:01N 70°43' E 048°53'0 0.0
2017-Mar-07 06:01N 70°43' E 048°53'0 0.2
2017-Mar-07 05:01N 70°43' E 048°54'1 0.6
2017-Mar-07 04:01N 70°43' E 048°54'0 0.2
2017-Mar-07 03:01N 70°43' E 048°53'1 0.6
2017-Mar-07 02:01N 70°44' E 048°53'0 0.2
2017-Mar-07 01:01N 70°44' E 048°52'0 0.0
2017-Mar-07 00:01N 70°44' E 048°52'1 0.6
2017-Mar-06 23:01N 70°44' E 048°52'0 0.2
2017-Mar-06 22:01N 70°44' E 048°53'1 0.7
2017-Mar-06 21:01N 70°45' E 048°54'0 0.2
2017-Mar-06 20:01N 70°45' E 048°55'1 0.7
2017-Mar-06 19:01N 70°46' E 048°56'0 0.2
2017-Mar-06 18:01N 70°46' E 048°56'1 0.7
2017-Mar-06 17:01N 70°46' E 048°58'1 0.6
2017-Mar-06 16:01N 70°47' E 048°58'1 0.6
2017-Mar-06 15:01N 70°47' E 048°58'0 0.4
2017-Mar-06 14:01N 70°47' E 048°57'1 0.6
2017-Mar-06 13:01N 70°47' E 048°55'  

Dump ship's entire track history